Time;durP1;ratioP1;P1;durP2;ratioP2;P2;SDS_P1;SDS_P2;PMS_P1;PMS_P2;Temp;Humidity;BMP_temperature;BMP_pressure;BME280_temperature;BME280_humidity;BME280_pressure;Samples;Min_cycle;Max_cycle;Signal;HPM_P1;HPM_P2
2024/01/24 00:00:16;;;;;;;20.08;3.38;;;;;;;10.95;100.00;101245.34;5030682;28;20041;-78
2024/01/24 00:02:42;;;;;;;11.40;2.75;;;;;;;11.01;100.00;101238.75;5011298;28;20037;-78
2024/01/24 00:05:08;;;;;;;12.43;3.22;;;;;;;11.03;100.00;101216.88;4992665;28;20046;-79
2024/01/24 00:07:33;;;;;;;12.80;2.67;;;;;;;11.06;100.00;101223.56;5028137;28;20096;-80
2024/01/24 00:09:58;;;;;;;11.75;2.55;;;;;;;11.14;100.00;101239.19;5030948;28;20044;-78
2024/01/24 00:12:24;;;;;;;11.68;3.17;;;;;;;11.08;100.00;101225.03;5025011;28;20037;-77
2024/01/24 00:14:49;;;;;;;15.80;2.97;;;;;;;11.14;100.00;101231.41;5008681;28;20535;-77
2024/01/24 00:17:15;;;;;;;7.47;2.60;;;;;;;11.20;100.00;101217.03;5032987;28;20029;-81
2024/01/24 00:19:40;;;;;;;11.55;2.42;;;;;;;11.13;100.00;101226.38;5013358;28;20465;-79
2024/01/24 00:22:06;;;;;;;8.68;2.67;;;;;;;11.14;100.00;101222.81;5027190;28;20057;-80
2024/01/24 00:24:31;;;;;;;10.48;2.50;;;;;;;11.18;100.00;101201.59;4990829;28;20043;-77
2024/01/24 00:26:57;;;;;;;11.23;2.72;;;;;;;11.14;100.00;101189.88;5030974;28;20033;-77
2024/01/24 00:29:22;;;;;;;14.32;2.67;;;;;;;11.26;100.00;101191.28;4992233;28;20045;-77
2024/01/24 00:31:51;;;;;;;10.95;2.75;;;;;;;11.28;100.00;101172.94;5015164;28;20029;-78
2024/01/24 00:34:16;;;;;;;11.55;2.35;;;;;;;11.32;100.00;101176.91;4994160;28;20064;-78
2024/01/24 00:36:42;;;;;;;9.18;2.70;;;;;;;11.30;100.00;101164.06;5013523;28;20022;-78
2024/01/24 00:39:07;;;;;;;10.65;2.55;;;;;;;11.24;100.00;101149.06;5017324;28;20480;-79
2024/01/24 00:41:33;;;;;;;9.60;2.30;;;;;;;11.27;100.00;101156.56;5016601;28;20060;-78
2024/01/24 00:43:59;;;;;;;11.85;2.30;;;;;;;11.25;100.00;101168.06;5014178;28;20037;-79
2024/01/24 00:46:24;;;;;;;10.65;2.47;;;;;;;11.42;100.00;101163.81;5020690;28;20103;-79
2024/01/24 00:48:49;;;;;;;12.25;2.63;;;;;;;11.45;100.00;101185.09;5018327;28;20376;-77
2024/01/24 00:51:15;;;;;;;7.05;2.10;;;;;;;11.44;100.00;101170.47;5001989;28;20044;-78
2024/01/24 00:53:42;;;;;;;9.20;2.60;;;;;;;11.54;100.00;101166.97;5017638;28;20037;-78
2024/01/24 00:56:07;;;;;;;7.00;2.30;;;;;;;11.53;100.00;101173.09;5014987;28;21412;-78
2024/01/24 00:58:33;;;;;;;6.35;2.05;;;;;;;11.59;100.00;101154.34;5019250;28;20037;-77
2024/01/24 01:00:58;;;;;;;8.75;2.22;;;;;;;11.62;100.00;101143.63;5001444;28;20026;-77
2024/01/24 01:03:24;;;;;;;5.97;2.05;;;;;;;11.64;100.00;101149.47;4998092;28;20048;-78
2024/01/24 01:05:49;;;;;;;11.88;2.65;;;;;;;11.54;100.00;101138.38;5014793;28;20064;-78
2024/01/24 01:08:15;;;;;;;9.38;2.47;;;;;;;11.58;100.00;101147.50;5000013;28;20029;-77
2024/01/24 01:10:40;;;;;;;7.55;1.83;;;;;;;11.68;100.00;101169.00;5015910;28;20034;-79
2024/01/24 01:13:06;;;;;;;7.15;1.60;;;;;;;11.65;100.00;101171.91;5016738;28;20060;-79
2024/01/24 01:15:31;;;;;;;12.85;1.98;;;;;;;11.74;100.00;101152.78;5030917;28;20046;-77
2024/01/24 01:17:56;;;;;;;4.68;1.63;;;;;;;11.85;100.00;101164.72;5019404;28;20037;-79
2024/01/24 01:20:22;;;;;;;5.80;2.10;;;;;;;11.87;100.00;101122.00;4999412;28;20038;-78
2024/01/24 01:22:47;;;;;;;5.13;1.67;;;;;;;11.90;100.00;101117.47;5017319;28;20660;-76
2024/01/24 01:25:13;;;;;;;4.40;1.40;;;;;;;11.86;100.00;101117.75;5019708;28;20653;-77
2024/01/24 01:27:39;;;;;;;7.95;1.58;;;;;;;11.88;100.00;101105.44;5011086;28;20092;-76
2024/01/24 01:30:06;;;;;;;7.20;1.83;;;;;;;11.94;100.00;101113.59;5011939;28;20055;-77
2024/01/24 01:32:31;;;;;;;2.70;1.48;;;;;;;12.00;100.00;101115.59;5024574;28;20040;-76
2024/01/24 01:34:57;;;;;;;7.22;1.40;;;;;;;11.93;100.00;101132.78;4995319;28;20034;-77
2024/01/24 01:37:23;;;;;;;4.53;1.95;;;;;;;12.03;100.00;101121.25;5034690;28;20033;-79
2024/01/24 01:39:49;;;;;;;4.00;1.60;;;;;;;12.11;100.00;101143.88;5030480;28;20045;-79
2024/01/24 01:42:15;;;;;;;4.95;1.75;;;;;;;12.07;100.00;101135.59;4993292;28;20076;-78
2024/01/24 01:44:46;;;;;;;5.88;1.40;;;;;;;12.17;100.00;101134.66;5000107;28;20037;-76
2024/01/24 01:47:16;;;;;;;7.30;1.30;;;;;;;12.16;100.00;101146.00;5016795;28;20151;-77
2024/01/24 01:49:45;;;;;;;5.22;1.30;;;;;;;12.20;100.00;101139.50;4994632;28;20057;-77
2024/01/24 01:52:11;;;;;;;4.15;1.00;;;;;;;12.20;100.00;101150.72;5025036;28;20045;-77
2024/01/24 01:54:38;;;;;;;4.80;1.63;;;;;;;12.24;100.00;101138.22;5006973;28;20045;-77
2024/01/24 01:57:05;;;;;;;6.05;1.17;;;;;;;12.17;100.00;101138.06;5019629;28;20030;-79
2024/01/24 01:59:32;;;;;;;3.47;1.10;;;;;;;12.20;100.00;101132.50;5017681;28;20049;-79
2024/01/24 02:02:00;;;;;;;2.17;0.90;;;;;;;12.30;100.00;101142.81;5036360;28;20039;-77
2024/01/24 02:04:26;;;;;;;5.97;1.77;;;;;;;12.33;100.00;101141.66;5033287;28;20144;-77
2024/01/24 02:06:55;;;;;;;4.75;1.33;;;;;;;12.40;100.00;101148.66;5016529;28;20045;-77
2024/01/24 02:09:21;;;;;;;3.95;1.30;;;;;;;12.44;100.00;101155.16;5013340;28;20091;-79
2024/01/24 02:11:46;;;;;;;6.53;1.42;;;;;;;12.39;100.00;101164.41;5031839;28;20068;-78
2024/01/24 02:14:12;;;;;;;3.70;1.00;;;;;;;12.38;100.00;101149.81;5029766;28;20029;-77
2024/01/24 02:16:38;;;;;;;6.50;1.25;;;;;;;12.43;100.00;101127.56;5031228;28;20064;-76
2024/01/24 02:19:04;;;;;;;2.03;1.55;;;;;;;12.32;100.00;101127.03;5017592;28;20426;-78
2024/01/24 02:21:30;;;;;;;2.90;0.95;;;;;;;12.29;100.00;101104.75;4999445;28;20468;-77
2024/01/24 02:23:58;;;;;;;3.22;1.10;;;;;;;12.35;100.00;101131.91;5018680;28;20044;-79
2024/01/24 02:26:24;;;;;;;4.28;1.20;;;;;;;12.32;100.00;101121.81;4997616;28;20437;-78
2024/01/24 02:28:49;;;;;;;4.63;0.98;;;;;;;12.38;100.00;101106.41;5011666;28;20025;-77
2024/01/24 02:31:14;;;;;;;2.50;0.90;;;;;;;12.33;100.00;101090.47;5034411;28;20517;-77
2024/01/24 02:33:40;;;;;;;3.47;1.10;;;;;;;12.37;100.00;101091.75;5014736;28;20392;-77
2024/01/24 02:36:05;;;;;;;1.95;1.00;;;;;;;12.32;100.00;101081.06;5031993;28;20032;-78
2024/01/24 02:38:31;;;;;;;6.35;0.80;;;;;;;12.26;100.00;101086.88;5018358;28;20511;-78
2024/01/24 02:40:56;;;;;;;2.67;1.10;;;;;;;12.28;100.00;101077.13;5013672;28;20045;-77
2024/01/24 02:43:22;;;;;;;1.13;0.93;;;;;;;12.19;100.00;101081.50;4994513;28;20403;-79
2024/01/24 02:45:47;;;;;;;5.28;1.40;;;;;;;12.12;100.00;101080.50;5027150;28;20033;-78
2024/01/24 02:48:13;;;;;;;5.18;0.90;;;;;;;12.09;100.00;101067.81;5015507;28;20037;-78
2024/01/24 02:50:38;;;;;;;2.88;1.08;;;;;;;11.97;100.00;101072.50;5035664;28;20241;-78
2024/01/24 02:53:04;;;;;;;3.70;1.20;;;;;;;11.96;100.00;101083.06;5033463;28;20063;-79
2024/01/24 02:55:29;;;;;;;2.63;0.88;;;;;;;11.87;100.00;101077.00;4995448;28;20041;-78
2024/01/24 02:57:55;;;;;;;1.40;0.90;;;;;;;11.80;100.00;101079.41;5016558;28;20029;-78
2024/01/24 03:00:20;;;;;;;3.25;1.17;;;;;;;11.80;100.00;101055.22;5011135;28;20116;-77
2024/01/24 03:02:46;;;;;;;2.45;1.13;;;;;;;11.76;100.00;101053.91;5016590;28;20029;-78
2024/01/24 03:05:11;;;;;;;5.03;1.42;;;;;;;11.81;100.00;101049.88;4995402;28;20042;-77
2024/01/24 03:07:37;;;;;;;1.38;0.80;;;;;;;11.75;100.00;101045.28;5017252;28;20053;-78
2024/01/24 03:10:04;;;;;;;2.45;1.10;;;;;;;11.76;100.00;101039.13;4994614;28;20038;-78
2024/01/24 03:12:30;;;;;;;2.63;0.82;;;;;;;11.68;100.00;101047.72;5016110;28;20025;-78
2024/01/24 03:14:55;;;;;;;2.08;0.70;;;;;;;11.73;100.00;101054.22;5013318;28;20460;-78
2024/01/24 03:17:21;;;;;;;1.20;0.80;;;;;;;11.69;100.00;101043.31;5030498;28;20025;-78
2024/01/24 03:19:47;;;;;;;1.27;0.75;;;;;;;11.60;100.00;101055.50;5017161;28;20555;-77
2024/01/24 03:22:13;;;;;;;1.67;1.00;;;;;;;11.76;100.00;101025.34;5031620;28;20033;-77
2024/01/24 03:24:38;;;;;;;1.40;0.60;;;;;;;11.68;100.00;101023.53;4997015;28;20033;-78
2024/01/24 03:27:04;;;;;;;1.45;0.80;;;;;;;11.72;100.00;101034.44;5031655;28;20044;-78
2024/01/24 03:29:30;;;;;;;2.08;0.70;;;;;;;11.62;100.00;101052.72;5003138;28;20026;-78
2024/01/24 03:31:55;;;;;;;1.25;0.73;;;;;;;11.54;100.00;101058.69;4999173;28;20036;-79
2024/01/24 03:34:23;;;;;;;2.58;0.82;;;;;;;11.54;100.00;101058.69;4997660;28;20209;-79
2024/01/24 03:36:48;;;;;;;3.13;0.77;;;;;;;11.56;100.00;101043.75;5011454;28;20068;-78
2024/01/24 03:39:14;;;;;;;18.80;8.50;;;;;;;11.48;100.00;101044.53;5012000;28;20045;-78
2024/01/24 03:41:40;;;;;;;14.82;7.40;;;;;;;11.52;100.00;101057.22;5014514;28;20037;-78
2024/01/24 03:44:05;;;;;;;2.50;1.48;;;;;;;11.54;100.00;101076.06;5013297;28;20033;-79
2024/01/24 03:46:31;;;;;;;0.80;0.80;;;;;;;11.46;100.00;101082.03;5030501;28;20080;-79
2024/01/24 03:48:56;;;;;;;1.52;0.80;;;;;;;11.47;100.00;101086.25;4998224;28;20057;-80
2024/01/24 03:51:22;;;;;;;1.15;0.90;;;;;;;11.53;100.00;101098.63;5013487;28;20029;-78
2024/01/24 03:53:47;;;;;;;2.90;0.75;;;;;;;11.47;100.00;101091.44;5014521;28;20025;-80
2024/01/24 03:56:13;;;;;;;1.25;0.70;;;;;;;11.50;100.00;101097.13;5032805;28;21879;-79
2024/01/24 03:58:38;;;;;;;2.15;0.70;;;;;;;11.48;100.00;101125.03;5002161;28;20044;-79
2024/01/24 04:01:04;;;;;;;2.65;1.23;;;;;;;11.44;100.00;101130.72;5030520;28;20427;-78
2024/01/24 04:03:30;;;;;;;2.17;1.35;;;;;;;11.47;100.00;101144.22;5020060;28;20431;-79
2024/01/24 04:05:55;;;;;;;2.58;1.25;;;;;;;11.47;100.00;101144.22;5030918;28;20033;-79
2024/01/24 04:08:21;;;;;;;0.90;0.47;;;;;;;11.55;100.00;101142.63;5036648;28;20052;-77
2024/01/24 04:10:47;;;;;;;1.63;0.70;;;;;;;11.59;100.00;101128.38;5001473;28;20029;-78
2024/01/24 04:13:14;;;;;;;1.05;0.50;;;;;;;11.56;100.00;101134.66;5019338;28;20059;-79
2024/01/24 04:15:39;;;;;;;0.47;0.40;;;;;;;11.54;100.00;101151.38;5018197;28;20092;-81
2024/01/24 04:18:05;;;;;;;3.38;0.70;;;;;;;11.48;100.00;101143.22;5003814;28;20033;-81
2024/01/24 04:20:30;;;;;;;2.05;0.50;;;;;;;11.45;100.00;101133.16;5000295;28;20052;-79
2024/01/24 04:22:56;;;;;;;2.03;0.80;;;;;;;11.43;100.00;101142.06;5040749;28;20037;-80
2024/01/24 04:25:21;;;;;;;1.35;0.68;;;;;;;11.46;100.00;101144.34;5019657;28;20048;-79
2024/01/24 04:27:46;;;;;;;3.08;0.65;;;;;;;11.40;100.00;101117.22;5023912;28;20025;-81
2024/01/24 04:30:12;;;;;;;1.13;0.60;;;;;;;11.39;100.00;101174.50;5005425;28;20056;-79
2024/01/24 04:32:38;;;;;;;6.43;1.73;;;;;;;11.34;100.00;101154.19;5019687;28;20121;-78
2024/01/24 04:35:03;;;;;;;1.55;0.63;;;;;;;11.37;100.00;101166.84;5005304;28;20033;-78
2024/01/24 04:37:29;;;;;;;4.22;0.60;;;;;;;11.42;100.00;101156.81;5019556;28;20033;-79
2024/01/24 04:39:54;;;;;;;4.20;0.73;;;;;;;11.50;100.00;101175.03;5039634;28;20056;-79
2024/01/24 04:42:20;;;;;;;3.42;0.70;;;;;;;11.51;100.00;101165.50;5008262;28;20040;-80
2024/01/24 04:44:45;;;;;;;6.07;0.68;;;;;;;11.56;100.00;101196.19;5020606;28;20038;-79
2024/01/24 04:47:13;;;;;;;3.38;0.50;;;;;;;11.58;100.00;101181.25;5002222;28;23025;-79
2024/01/24 04:49:39;;;;;;;9.38;0.80;;;;;;;11.58;100.00;101173.47;5019968;28;20025;-78
2024/01/24 04:52:04;;;;;;;3.13;0.90;;;;;;;11.58;100.00;101220.22;5039656;28;20595;-76
2024/01/24 04:54:34;;;;;;;6.32;0.90;;;;;;;11.62;100.00;101201.59;4997181;28;20041;-77
2024/01/24 04:56:59;;;;;;;5.43;0.98;;;;;;;11.63;100.00;101182.44;5035157;28;20130;-77
2024/01/24 04:59:25;;;;;;;8.68;1.02;;;;;;;11.62;100.00;101186.00;5003929;28;20503;-78
2024/01/24 05:01:50;;;;;;;5.72;1.00;;;;;;;11.62;100.00;101200.75;5006211;28;20033;-79
2024/01/24 05:04:16;;;;;;;2.47;0.70;;;;;;;11.61;100.00;101227.72;5004344;28;20530;-79
2024/01/24 05:06:41;;;;;;;4.00;0.65;;;;;;;11.60;100.00;101210.50;5038856;28;20408;-78
2024/01/24 05:09:07;;;;;;;5.05;1.30;;;;;;;11.59;100.00;101240.84;5022664;28;20025;-78
2024/01/24 05:11:32;;;;;;;7.22;1.00;;;;;;;11.52;100.00;101218.25;5016789;28;20038;-78
2024/01/24 05:14:00;;;;;;;9.10;1.30;;;;;;;11.45;100.00;101236.19;5030577;28;20041;-78
2024/01/24 05:16:28;;;;;;;10.15;0.93;;;;;;;11.55;100.00;101210.16;5031774;28;20407;-77
2024/01/24 05:18:54;;;;;;;7.35;1.27;;;;;;;11.55;100.00;101195.38;5011690;28;20037;-79
2024/01/24 05:21:20;;;;;;;10.52;1.13;;;;;;;11.54;100.00;101216.31;4997359;28;20137;-78
2024/01/24 05:23:46;;;;;;;8.25;0.95;;;;;;;11.59;100.00;101211.47;5019196;28;20037;-76
2024/01/24 05:26:11;;;;;;;8.35;1.48;;;;;;;11.58;99.58;101225.41;5002866;28;20041;-77
2024/01/24 05:28:37;;;;;;;8.10;1.75;;;;;;;11.50;100.00;101221.78;5000146;28;20455;-78
2024/01/24 05:31:02;;;;;;;10.25;1.80;;;;;;;11.48;99.93;101244.50;5036041;28;20064;-76
2024/01/24 05:33:28;;;;;;;10.15;1.00;;;;;;;11.60;98.48;101246.84;5014179;28;20040;-78
2024/01/24 05:35:53;;;;;;;13.93;1.50;;;;;;;11.57;97.22;101229.00;4997220;28;20029;-77
2024/01/24 05:38:19;;;;;;;10.85;1.80;;;;;;;11.58;96.24;101225.41;5015390;28;20424;-77
2024/01/24 05:40:44;;;;;;;17.52;2.85;;;;;;;11.53;93.93;101230.25;5015453;28;20045;-78
2024/01/24 05:43:10;;;;;;;19.77;2.08;;;;;;;11.49;94.15;101255.72;5015536;28;20029;-79
2024/01/24 05:45:35;;;;;;;14.57;2.22;;;;;;;11.45;92.57;101241.38;5028976;28;20542;-78
2024/01/24 05:48:01;;;;;;;21.27;2.60;;;;;;;11.48;91.22;101249.69;5001153;28;20049;-77
2024/01/24 05:50:26;;;;;;;16.15;2.75;;;;;;;11.51;89.84;101253.78;5028705;28;20045;-77
2024/01/24 05:52:52;;;;;;;20.05;2.15;;;;;;;11.48;90.62;101278.25;5001432;28;20041;-77
2024/01/24 05:55:17;;;;;;;19.20;2.60;;;;;;;11.43;90.46;101287.47;4997371;28;20036;-78
2024/01/24 05:57:46;;;;;;;17.25;3.50;;;;;;;11.37;90.73;101275.91;5033726;28;20033;-78
2024/01/24 06:00:14;;;;;;;17.35;3.40;;;;;;;11.40;91.26;101298.97;5032581;28;20087;-77
2024/01/24 06:02:41;;;;;;;17.40;3.70;;;;;;;11.44;90.63;101291.72;5012032;28;20032;-79
2024/01/24 06:05:07;;;;;;;18.27;3.80;;;;;;;11.40;92.30;101303.38;4998006;28;20033;-79
2024/01/24 06:07:33;;;;;;;14.32;2.83;;;;;;;11.29;92.56;101307.00;4991920;28;20041;-77
2024/01/24 06:09:58;;;;;;;16.45;2.42;;;;;;;11.26;93.01;101295.13;5031263;28;20041;-77
2024/01/24 06:12:24;;;;;;;9.70;2.60;;;;;;;11.30;93.37;101304.25;4997351;28;20049;-78
2024/01/24 06:14:49;;;;;;;15.68;3.13;;;;;;;11.32;93.14;101296.31;4997426;28;20036;-78
2024/01/24 06:17:16;;;;;;;8.23;1.90;;;;;;;11.35;92.75;101308.97;5028924;28;20029;-77
2024/01/24 06:19:43;;;;;;;13.40;2.80;;;;;;;11.38;93.17;101319.09;5010499;28;20042;-77
2024/01/24 06:22:09;;;;;;;27.20;3.30;;;;;;;11.33;92.40;101300.53;4996863;28;20049;-77
2024/01/24 06:24:35;;;;;;;17.85;4.70;;;;;;;11.36;92.50;101302.00;5014762;28;20037;-77
2024/01/24 06:27:01;;;;;;;19.35;2.92;;;;;;;11.35;91.66;101287.41;4995526;28;20033;-78
2024/01/24 06:29:27;;;;;;;23.48;2.80;;;;;;;11.26;91.65;101291.69;5010485;28;20029;-77
2024/01/24 06:31:53;;;;;;;27.38;4.47;;;;;;;11.22;90.90;101313.72;5026171;28;20025;-78
2024/01/24 06:34:18;;;;;;;27.92;3.60;;;;;;;11.22;91.18;101317.13;5012084;28;20551;-79
2024/01/24 06:36:44;;;;;;;25.27;3.97;;;;;;;11.28;90.92;101329.53;5030800;28;20030;-78
2024/01/24 06:39:09;;;;;;;23.48;3.55;;;;;;;11.19;91.22;101320.03;4993820;28;20127;-79
2024/01/24 06:41:35;;;;;;;27.08;5.78;;;;;;;11.17;91.00;101336.72;5030224;28;20037;-78
2024/01/24 06:44:03;;;;;;;27.38;5.60;;;;;;;11.19;90.50;101355.53;5012492;28;20044;-77
2024/01/24 06:46:28;;;;;;;25.35;4.88;;;;;;;11.10;89.54;101352.88;5010459;28;20046;-79
2024/01/24 06:48:54;;;;;;;27.85;4.40;;;;;;;11.15;88.63;101354.22;4996355;28;20029;-79
2024/01/24 06:51:19;;;;;;;27.08;4.78;;;;;;;11.13;88.67;101363.91;4995329;28;20038;-76
2024/01/24 06:53:45;;;;;;;30.80;4.03;;;;;;;11.05;89.43;101362.06;5024579;28;20037;-79
2024/01/24 06:56:10;;;;;;;31.05;6.18;;;;;;;11.01;89.60;101379.69;5009953;28;20042;-79
2024/01/24 06:58:40;;;;;;;34.70;5.20;;;;;;;11.01;89.15;101389.25;4994722;28;20384;-78
2024/01/24 07:01:06;;;;;;;29.50;5.07;;;;;;;11.08;88.51;101388.53;5027865;28;20045;-78
2024/01/24 07:03:31;;;;;;;32.13;4.13;;;;;;;11.06;87.84;101392.25;4997560;28;20045;-77
2024/01/24 07:05:57;;;;;;;36.92;6.07;;;;;;;11.07;88.18;101401.66;4996614;28;20037;-78
2024/01/24 07:08:23;;;;;;;34.55;5.22;;;;;;;11.02;88.18;101401.25;5015449;28;20045;-77
2024/01/24 07:10:48;;;;;;;36.28;6.00;;;;;;;11.10;87.75;101414.34;5012810;28;20045;-79
2024/01/24 07:13:14;;;;;;;44.08;7.32;;;;;;;10.97;88.94;101421.66;5012091;28;20033;-77
2024/01/24 07:15:40;;;;;;;35.75;5.00;;;;;;;11.05;87.67;101432.13;5012585;28;20233;-76
2024/01/24 07:18:05;;;;;;;33.80;5.95;;;;;;;10.98;88.46;101444.88;5030970;28;20044;-78
2024/01/24 07:20:31;;;;;;;39.78;5.13;;;;;;;10.98;88.18;101442.28;5016779;28;20068;-77
2024/01/24 07:22:56;;;;;;;37.40;5.35;;;;;;;10.87;89.15;101456.25;5030149;28;20048;-78
2024/01/24 07:25:22;;;;;;;33.08;5.03;;;;;;;10.94;88.40;101434.91;5009445;28;20045;-78
2024/01/24 07:27:48;;;;;;;33.08;6.03;;;;;;;10.96;87.94;101448.56;4994548;28;21099;-77
2024/01/24 07:30:15;;;;;;;35.40;5.03;;;;;;;10.95;87.60;101454.72;5008853;28;20545;-78
2024/01/24 07:32:42;;;;;;;34.58;4.85;;;;;;;11.02;86.43;101471.34;5013746;28;20017;-77
2024/01/24 07:35:09;;;;;;;41.15;7.55;;;;;;;11.01;86.78;101464.53;5011539;28;20041;-77
2024/01/24 07:37:34;;;;;;;30.92;4.20;;;;;;;10.94;86.05;101471.22;5009131;28;20056;-79
2024/01/24 07:40:00;;;;;;;27.35;4.95;;;;;;;11.02;85.65;101479.13;5032518;28;20033;-77
2024/01/24 07:42:25;;;;;;;27.75;4.60;;;;;;;10.98;85.70;101493.34;5000247;28;20052;-78
2024/01/24 07:44:51;;;;;;;37.42;4.32;;;;;;;10.93;86.37;101498.97;4998847;28;20041;-77
2024/01/24 07:47:20;;;;;;;37.65;3.95;;;;;;;10.93;86.47;101488.59;4998439;28;20037;-77
2024/01/24 07:49:45;;;;;;;29.33;4.90;;;;;;;10.87;86.23;101515.09;5013580;28;20040;-77
2024/01/24 07:52:11;;;;;;;32.75;5.45;;;;;;;10.90;86.33;101505.22;4999357;28;20913;-77
2024/01/24 07:54:36;;;;;;;40.13;5.78;;;;;;;10.89;87.16;101521.78;5017106;28;20033;-77
2024/01/24 07:57:03;;;;;;;22.25;4.38;;;;;;;10.85;87.16;101519.59;5001941;28;20036;-78
2024/01/24 07:59:29;;;;;;;51.88;6.30;;;;;;;10.85;87.24;101510.06;5010461;28;20037;-77
2024/01/24 08:01:55;;;;;;;30.17;4.10;;;;;;;10.90;86.26;101512.22;5037191;28;20035;-77
2024/01/24 08:04:20;;;;;;;37.15;4.43;;;;;;;10.81;86.70;101508.69;4999525;28;20060;-77
2024/01/24 08:06:47;;;;;;;38.85;4.65;;;;;;;10.78;87.41;101514.16;5003371;28;20049;-77
2024/01/24 08:09:13;;;;;;;40.17;6.35;;;;;;;10.75;89.78;101526.59;5032208;28;20086;-77
2024/01/24 08:11:38;;;;;;;53.53;6.53;;;;;;;10.65;95.73;101537.78;5012413;28;20030;-77
2024/01/24 08:14:03;;;;;;;38.13;4.68;;;;;;;10.48;98.14;101539.31;5003710;28;20029;-79
2024/01/24 08:16:29;;;;;;;39.45;5.13;;;;;;;10.35;100.00;101559.50;5002408;28;20403;-78
2024/01/24 08:18:55;;;;;;;36.33;5.03;;;;;;;10.39;99.78;101547.09;5003093;28;20044;-79
2024/01/24 08:21:20;;;;;;;45.65;6.10;;;;;;;10.23;99.17;101561.38;5033149;28;20033;-78
2024/01/24 08:23:46;;;;;;;46.95;5.80;;;;;;;10.35;95.22;101548.31;5038067;28;20030;-78
2024/01/24 08:26:12;;;;;;;32.28;4.75;;;;;;;10.39;92.83;101558.28;5039352;28;20056;-79
2024/01/24 08:28:37;;;;;;;43.58;4.97;;;;;;;10.45;89.58;101581.09;5019860;28;20029;-78
2024/01/24 08:31:03;;;;;;;35.72;5.30;;;;;;;10.51;88.70;101590.09;5010026;28;20033;-78
2024/01/24 08:33:31;;;;;;;42.85;4.78;;;;;;;10.48;87.89;101580.78;5004512;28;20507;-80
2024/01/24 08:35:56;;;;;;;40.72;5.07;;;;;;;10.44;89.08;101597.59;4998567;28;20038;-79
2024/01/24 08:38:21;;;;;;;35.72;5.00;;;;;;;10.49;89.41;101607.53;5009280;28;20032;-79
2024/01/24 08:40:47;;;;;;;45.28;4.50;;;;;;;10.50;88.86;101596.22;5039596;28;20037;-79
2024/01/24 08:43:12;;;;;;;35.13;4.82;;;;;;;10.51;86.46;101605.66;5022753;28;20060;-80
2024/01/24 08:45:38;;;;;;;37.63;4.72;;;;;;;10.57;83.72;101610.28;5008459;28;20412;-78
2024/01/24 08:48:04;;;;;;;33.85;5.32;;;;;;;10.57;82.34;101628.44;5018452;28;20032;-78
2024/01/24 08:50:29;;;;;;;47.25;7.55;;;;;;;10.61;80.33;101622.03;5035695;28;20507;-78
2024/01/24 08:52:55;;;;;;;37.40;5.38;;;;;;;10.60;81.33;101619.56;5034036;28;20037;-78
2024/01/24 08:55:20;;;;;;;41.92;5.45;;;;;;;10.75;79.53;101643.31;5002390;28;20040;-78
2024/01/24 08:57:45;;;;;;;47.05;5.13;;;;;;;10.87;79.16;101643.06;5007103;28;20545;-78
2024/01/24 09:00:11;;;;;;;39.63;4.65;;;;;;;10.86;76.91;101650.97;5018462;28;20050;-77
2024/01/24 09:02:37;;;;;;;29.42;5.18;;;;;;;10.67;77.92;101647.41;5033387;28;20045;-78
2024/01/24 09:05:03;;;;;;;31.98;4.38;;;;;;;10.71;78.32;101664.34;5003888;28;20040;-79
2024/01/24 09:07:29;;;;;;;24.58;3.70;;;;;;;10.71;77.14;101658.34;5019698;28;20045;-78
2024/01/24 09:09:54;;;;;;;42.53;5.57;;;;;;;10.67;77.04;101662.97;5015847;28;20072;-78
2024/01/24 09:12:19;;;;;;;36.03;5.28;;;;;;;10.76;77.10;101652.75;5004150;28;20041;-77
2024/01/24 09:14:45;;;;;;;37.03;5.55;;;;;;;10.72;76.83;101636.63;5037552;28;20051;-78
2024/01/24 09:17:13;;;;;;;41.58;5.38;;;;;;;10.73;78.45;101633.06;5004269;28;20026;-78
2024/01/24 09:19:40;;;;;;;40.45;6.28;;;;;;;10.71;78.36;101628.00;5019544;28;20045;-78
2024/01/24 09:22:06;;;;;;;31.80;5.38;;;;;;;10.73;77.58;101645.22;5012830;28;20062;-77
2024/01/24 09:24:32;;;;;;;25.65;4.30;;;;;;;10.79;77.12;101660.25;4999668;28;20058;-77
2024/01/24 09:26:57;;;;;;;41.90;4.68;;;;;;;10.67;77.57;101682.91;5001884;28;20603;-78
2024/01/24 09:29:23;;;;;;;28.00;4.00;;;;;;;10.70;77.14;101693.84;5015096;28;20553;-78
2024/01/24 09:31:48;;;;;;;32.08;4.97;;;;;;;10.69;78.31;101694.78;4995578;28;20109;-78
2024/01/24 09:34:15;;;;;;;41.70;5.95;;;;;;;10.75;78.46;101679.63;5016150;28;20049;-78
2024/01/24 09:36:40;;;;;;;38.95;4.53;;;;;;;10.74;78.22;101683.16;5004943;28;20029;-77
2024/01/24 09:39:07;;;;;;;38.35;4.80;;;;;;;10.71;78.50;101681.69;4997828;28;20411;-77
2024/01/24 09:41:40;;;;;;;34.67;4.80;;;;;;;10.80;77.58;101685.25;5031895;28;20048;-76
2024/01/24 09:44:08;;;;;;;53.75;7.72;;;;;;;10.77;79.01;101701.88;5030904;28;20067;-78
2024/01/24 09:46:36;;;;;;;36.47;5.07;;;;;;;10.73;78.77;101713.50;4996234;28;20490;-78
2024/01/24 09:49:03;;;;;;;41.08;5.70;;;;;;;10.70;78.59;101714.59;5035146;28;20079;-76
2024/01/24 09:51:31;;;;;;;38.17;5.75;;;;;;;10.73;79.07;101734.25;4998533;28;20455;-76
2024/01/24 09:54:00;;;;;;;32.17;4.15;;;;;;;10.75;78.31;101767.84;5000127;28;20069;-77
2024/01/24 09:56:26;;;;;;;47.50;7.10;;;;;;;10.76;78.19;101761.72;5017858;28;20558;-78
2024/01/24 09:58:51;;;;;;;35.47;4.68;;;;;;;10.75;78.27;101762.66;5032119;28;20041;-78
2024/01/24 10:01:19;;;;;;;45.45;5.47;;;;;;;10.79;79.24;101767.44;5016750;28;20037;-78
2024/01/24 10:03:46;;;;;;;46.38;7.50;;;;;;;10.78;78.88;101762.41;5036974;28;20100;-77
2024/01/24 10:06:12;;;;;;;39.33;4.95;;;;;;;10.81;78.53;101756.91;5031864;28;20151;-78
2024/01/24 10:08:38;;;;;;;38.95;6.32;;;;;;;10.80;78.30;101753.50;5032696;28;20521;-79
2024/01/24 10:11:04;;;;;;;44.05;5.55;;;;;;;10.81;79.61;101767.28;5029597;28;20033;-78
2024/01/24 10:13:32;;;;;;;49.53;6.22;;;;;;;10.83;78.20;101752.41;5002259;28;20056;-78
2024/01/24 10:15:59;;;;;;;43.13;5.88;;;;;;;10.85;78.25;101759.13;5003030;28;20120;-77
2024/01/24 10:18:25;;;;;;;52.95;6.25;;;;;;;10.78;78.68;101767.59;5003715;28;20037;-77
2024/01/24 10:20:50;;;;;;;45.90;5.63;;;;;;;10.81;78.69;101760.34;4998809;28;20515;-78
2024/01/24 10:23:16;;;;;;;43.95;6.03;;;;;;;10.87;78.38;101769.38;5018430;28;20041;-77
2024/01/24 10:25:41;;;;;;;39.72;6.07;;;;;;;10.84;78.52;101780.81;5017025;28;20049;-76
2024/01/24 10:28:14;;;;;;;45.30;6.50;;;;;;;10.89;77.45;101786.44;5018578;28;20037;-77
2024/01/24 10:30:41;;;;;;;41.75;5.15;;;;;;;10.89;77.18;101778.66;5030001;28;20165;-76
2024/01/24 10:33:11;;;;;;;34.53;4.93;;;;;;;10.91;77.04;101799.28;5013881;28;20033;-78
2024/01/24 10:35:37;;;;;;;42.55;6.97;;;;;;;10.86;76.89;101784.09;5014213;28;20057;-77
2024/01/24 10:38:02;;;;;;;38.13;5.20;;;;;;;10.91;77.01;101796.69;5036622;28;20083;-77
2024/01/24 10:40:28;;;;;;;48.03;5.25;;;;;;;10.95;77.20;101785.09;5013260;28;20048;-77
2024/01/24 10:43:02;;;;;;;44.30;5.90;;;;;;;10.91;76.86;101781.13;4997196;28;20029;-78
2024/01/24 10:45:31;;;;;;;41.72;5.75;;;;;;;11.02;76.50;101793.13;5018631;28;20034;-77
2024/01/24 10:47:58;;;;;;;36.90;5.45;;;;;;;10.98;76.00;101796.97;5000409;28;20042;-77
2024/01/24 10:50:25;;;;;;;41.88;6.43;;;;;;;11.06;76.33;101777.19;5001537;28;20491;-77
2024/01/24 10:52:51;;;;;;;50.55;7.18;;;;;;;11.00;76.03;101806.28;5018824;28;20059;-76
2024/01/24 10:55:17;;;;;;;36.25;6.57;;;;;;;11.06;75.70;101792.75;5013110;28;20053;-76
2024/01/24 10:57:44;;;;;;;35.70;5.18;;;;;;;11.05;75.78;101811.03;5016000;28;20037;-77
2024/01/24 11:00:11;;;;;;;42.30;5.28;;;;;;;10.99;75.97;101825.38;5011712;28;20041;-77
2024/01/24 11:02:41;;;;;;;52.13;6.10;;;;;;;10.96;76.33;101819.63;5000513;28;20089;-77
2024/01/24 11:05:10;;;;;;;39.47;5.38;;;;;;;11.12;75.65;101840.72;5016981;28;20040;-77
2024/01/24 11:07:43;;;;;;;40.35;5.38;;;;;;;11.09;76.36;101838.38;5000782;28;20034;-77
2024/01/24 11:10:11;;;;;;;;;;;;;;;11.02;75.96;101852.81;5017351;28;20052;-77